sensor_id;sensor_type;location;lat;lon;timestamp;pressure;altitude;pressure_sealevel;temperature;humidity
50632;BME280;49583;45.590;-122.498;2023-04-27T00:01:57;101443.85;;;26.61;34.89
50632;BME280;49583;45.590;-122.498;2023-04-27T00:04:30;101442.57;;;26.65;34.72
50632;BME280;49583;45.590;-122.498;2023-04-27T00:07:03;101441.73;;;26.69;34.85
50632;BME280;49583;45.590;-122.498;2023-04-27T00:09:26;101445.48;;;26.72;34.74
50632;BME280;49583;45.590;-122.498;2023-04-27T00:11:39;101441.23;;;26.74;34.97
50632;BME280;49583;45.590;-122.498;2023-04-27T00:14:12;101437.96;;;26.81;35.01
50632;BME280;49583;45.590;-122.498;2023-04-27T00:16:28;101434.77;;;26.85;35.07
50632;BME280;49583;45.590;-122.498;2023-04-27T00:18:51;101432.85;;;26.97;35.19
50632;BME280;49583;45.590;-122.498;2023-04-27T00:21:04;101426.70;;;27.08;34.90
50632;BME280;49583;45.590;-122.498;2023-04-27T00:23:37;101422.79;;;27.18;35.17
50632;BME280;49583;45.590;-122.498;2023-04-27T00:26:00;101422.45;;;27.30;35.15
50632;BME280;49583;45.590;-122.498;2023-04-27T00:28:23;101420.09;;;27.38;35.01
50632;BME280;49583;45.590;-122.498;2023-04-27T00:30:40;101423.57;;;27.43;35.04
50632;BME280;49583;45.590;-122.498;2023-04-27T00:32:58;101423.92;;;27.47;34.71
50632;BME280;49583;45.590;-122.498;2023-04-27T00:35:24;101422.14;;;27.52;34.61
50632;BME280;49583;45.590;-122.498;2023-04-27T00:37:46;101421.00;;;27.57;34.49
50632;BME280;49583;45.590;-122.498;2023-04-27T00:40:06;101421.34;;;27.63;34.51
50632;BME280;49583;45.590;-122.498;2023-04-27T00:42:21;101418.09;;;27.68;34.53
50632;BME280;49583;45.590;-122.498;2023-04-27T00:44:38;101417.73;;;27.71;34.53
50632;BME280;49583;45.590;-122.498;2023-04-27T00:46:54;101415.88;;;27.70;34.23
50632;BME280;49583;45.590;-122.498;2023-04-27T00:49:07;101415.39;;;27.67;34.35
50632;BME280;49583;45.590;-122.498;2023-04-27T00:51:40;101411.71;;;27.63;34.07
50632;BME280;49583;45.590;-122.498;2023-04-27T00:53:58;101409.17;;;27.57;34.28
50632;BME280;49583;45.590;-122.498;2023-04-27T00:56:11;101410.43;;;27.51;34.02
50632;BME280;49583;45.590;-122.498;2023-04-27T00:58:33;101409.80;;;27.42;33.84
50632;BME280;49583;45.590;-122.498;2023-04-27T01:01:06;101412.03;;;27.29;34.08
50632;BME280;49583;45.590;-122.498;2023-04-27T01:03:39;101411.98;;;27.17;34.00
50632;BME280;49583;45.590;-122.498;2023-04-27T01:05:56;101413.38;;;27.10;33.97
50632;BME280;49583;45.590;-122.498;2023-04-27T01:08:31;101413.21;;;26.99;33.91
50632;BME280;49583;45.590;-122.498;2023-04-27T01:10:44;101419.45;;;26.89;33.99
50632;BME280;49583;45.590;-122.498;2023-04-27T01:13:12;101418.33;;;26.80;34.26
50632;BME280;49583;45.590;-122.498;2023-04-27T01:15:44;101424.50;;;26.70;34.58
50632;BME280;49583;45.590;-122.498;2023-04-27T01:18:01;101421.81;;;26.64;34.52
50632;BME280;49583;45.590;-122.498;2023-04-27T01:20:35;101426.45;;;26.58;34.79
50632;BME280;49583;45.590;-122.498;2023-04-27T01:22:50;101422.62;;;26.52;34.66
50632;BME280;49583;45.590;-122.498;2023-04-27T01:25:06;101429.73;;;26.46;34.81
50632;BME280;49583;45.590;-122.498;2023-04-27T01:27:19;101434.90;;;26.40;35.03
50632;BME280;49583;45.590;-122.498;2023-04-27T01:29:35;101430.88;;;26.35;35.01
50632;BME280;49583;45.590;-122.498;2023-04-27T01:31:49;101428.48;;;26.30;34.98
50632;BME280;49583;45.590;-122.498;2023-04-27T01:34:18;101420.48;;;26.21;35.00
50632;BME280;49583;45.590;-122.498;2023-04-27T01:36:51;101426.44;;;26.17;35.11
50632;BME280;49583;45.590;-122.498;2023-04-27T01:39:15;101425.91;;;26.09;35.22
50632;BME280;49583;45.590;-122.498;2023-04-27T01:41:31;101423.61;;;26.02;35.21
50632;BME280;49583;45.590;-122.498;2023-04-27T01:43:47;101422.05;;;25.96;35.45
50632;BME280;49583;45.590;-122.498;2023-04-27T01:46:09;101424.05;;;25.88;35.58
50632;BME280;49583;45.590;-122.498;2023-04-27T01:48:42;101419.98;;;25.80;35.54
50632;BME280;49583;45.590;-122.498;2023-04-27T01:51:15;101416.80;;;25.74;35.72
50632;BME280;49583;45.590;-122.498;2023-04-27T01:53:37;101412.44;;;25.67;35.71
50632;BME280;49583;45.590;-122.498;2023-04-27T01:55:52;101412.62;;;25.63;35.68
50632;BME280;49583;45.590;-122.498;2023-04-27T01:58:05;101413.14;;;25.58;35.77
50632;BME280;49583;45.590;-122.498;2023-04-27T02:00:29;101415.63;;;25.53;35.83
50632;BME280;49583;45.590;-122.498;2023-04-27T02:02:45;101413.40;;;25.49;36.02
50632;BME280;49583;45.590;-122.498;2023-04-27T02:05:00;101414.41;;;25.45;35.96
50632;BME280;49583;45.590;-122.498;2023-04-27T02:07:13;101410.27;;;25.41;36.10
50632;BME280;49583;45.590;-122.498;2023-04-27T02:09:37;101410.01;;;25.36;36.19
50632;BME280;49583;45.590;-122.498;2023-04-27T02:11:51;101409.14;;;25.30;36.09
50632;BME280;49583;45.590;-122.498;2023-04-27T02:14:07;101408.65;;;25.25;36.22
50632;BME280;49583;45.590;-122.498;2023-04-27T02:16:23;101408.48;;;25.19;36.23
50632;BME280;49583;45.590;-122.498;2023-04-27T02:18:36;101404.06;;;25.14;36.37
50632;BME280;49583;45.590;-122.498;2023-04-27T02:20:53;101401.69;;;25.10;36.34
50632;BME280;49583;45.590;-122.498;2023-04-27T02:23:25;101402.65;;;25.04;36.46
50632;BME280;49583;45.590;-122.498;2023-04-27T02:25:40;101403.94;;;24.98;36.69
50632;BME280;49583;45.590;-122.498;2023-04-27T02:28:16;101402.43;;;24.91;36.74
50632;BME280;49583;45.590;-122.498;2023-04-27T02:30:29;101402.05;;;24.85;36.82
50632;BME280;49583;45.590;-122.498;2023-04-27T02:32:45;101402.07;;;24.82;36.94
50632;BME280;49583;45.590;-122.498;2023-04-27T02:35:10;101402.44;;;24.77;36.91
50632;BME280;49583;45.590;-122.498;2023-04-27T02:37:27;101401.61;;;24.69;37.03
50632;BME280;49583;45.590;-122.498;2023-04-27T02:39:42;101405.15;;;24.65;36.99
50632;BME280;49583;45.590;-122.498;2023-04-27T02:41:59;101407.36;;;24.60;37.11
50632;BME280;49583;45.590;-122.498;2023-04-27T02:44:12;101415.39;;;24.56;37.24
50632;BME280;49583;45.590;-122.498;2023-04-27T02:46:29;101417.35;;;24.51;37.27
50632;BME280;49583;45.590;-122.498;2023-04-27T02:48:45;101418.73;;;24.46;37.34
50632;BME280;49583;45.590;-122.498;2023-04-27T02:50:58;101421.33;;;24.41;37.32
50632;BME280;49583;45.590;-122.498;2023-04-27T02:53:14;101423.58;;;24.35;37.42
50632;BME280;49583;45.590;-122.498;2023-04-27T02:55:26;101428.84;;;24.29;37.49
50632;BME280;49583;45.590;-122.498;2023-04-27T02:57:43;101429.54;;;24.23;37.65
50632;BME280;49583;45.590;-122.498;2023-04-27T02:59:58;101430.66;;;24.17;37.92
50632;BME280;49583;45.590;-122.498;2023-04-27T03:02:12;101436.91;;;24.10;37.85
50632;BME280;49583;45.590;-122.498;2023-04-27T03:04:45;101442.41;;;24.03;38.01
50632;BME280;49583;45.590;-122.498;2023-04-27T03:07:09;101443.84;;;23.96;38.17
50632;BME280;49583;45.590;-122.498;2023-04-27T03:09:23;101443.11;;;23.90;38.13
50632;BME280;49583;45.590;-122.498;2023-04-27T03:11:38;101447.80;;;23.84;38.22
50632;BME280;49583;45.590;-122.498;2023-04-27T03:14:08;101448.87;;;23.78;38.36
50632;BME280;49583;45.590;-122.498;2023-04-27T03:16:33;101452.85;;;23.71;38.45
50632;BME280;49583;45.590;-122.498;2023-04-27T03:19:06;101453.88;;;23.64;38.60
50632;BME280;49583;45.590;-122.498;2023-04-27T03:21:29;101454.98;;;23.57;38.62
50632;BME280;49583;45.590;-122.498;2023-04-27T03:23:59;101459.60;;;23.49;38.79
50632;BME280;49583;45.590;-122.498;2023-04-27T03:26:22;101462.34;;;23.42;38.94
50632;BME280;49583;45.590;-122.498;2023-04-27T03:28:46;101464.70;;;23.36;39.08
50632;BME280;49583;45.590;-122.498;2023-04-27T03:31:14;101464.70;;;23.28;39.28
50632;BME280;49583;45.590;-122.498;2023-04-27T03:33:40;101470.75;;;23.20;39.37
50632;BME280;49583;45.590;-122.498;2023-04-27T03:36:13;101479.30;;;23.10;39.43
50632;BME280;49583;45.590;-122.498;2023-04-27T03:38:40;101483.35;;;23.02;39.54
50632;BME280;49583;45.590;-122.498;2023-04-27T03:41:14;101484.34;;;22.91;39.74
50632;BME280;49583;45.590;-122.498;2023-04-27T03:43:38;101491.61;;;22.81;39.95
50632;BME280;49583;45.590;-122.498;2023-04-27T03:46:02;101498.27;;;22.72;40.07
50632;BME280;49583;45.590;-122.498;2023-04-27T03:48:28;101505.35;;;22.62;40.24
50632;BME280;49583;45.590;-122.498;2023-04-27T03:51:01;101512.34;;;22.54;40.41
50632;BME280;49583;45.590;-122.498;2023-04-27T03:53:35;101518.94;;;22.44;40.66
50632;BME280;49583;45.590;-122.498;2023-04-27T03:55:48;101521.70;;;22.34;40.79
50632;BME280;49583;45.590;-122.498;2023-04-27T03:58:20;101529.08;;;22.25;40.94
50632;BME280;49583;45.590;-122.498;2023-04-27T04:00:53;101528.71;;;22.17;41.22
50632;BME280;49583;45.590;-122.498;2023-04-27T04:03:17;101532.34;;;22.08;41.29
50632;BME280;49583;45.590;-122.498;2023-04-27T04:05:43;101534.36;;;21.98;41.56
50632;BME280;49583;45.590;-122.498;2023-04-27T04:08:07;101536.64;;;21.92;41.73
50632;BME280;49583;45.590;-122.498;2023-04-27T04:10:29;101542.39;;;21.83;41.72
50632;BME280;49583;45.590;-122.498;2023-04-27T04:12:46;101539.35;;;21.77;41.93
50632;BME280;49583;45.590;-122.498;2023-04-27T04:15:19;101544.77;;;21.69;42.10
50632;BME280;49583;45.590;-122.498;2023-04-27T04:17:41;101545.66;;;21.62;42.26
50632;BME280;49583;45.590;-122.498;2023-04-27T04:20:15;101548.04;;;21.54;42.34
50632;BME280;49583;45.590;-122.498;2023-04-27T04:22:48;101545.63;;;21.47;42.50
50632;BME280;49583;45.590;-122.498;2023-04-27T04:25:21;101546.02;;;21.40;42.54
50632;BME280;49583;45.590;-122.498;2023-04-27T04:27:54;101546.17;;;21.33;42.69
50632;BME280;49583;45.590;-122.498;2023-04-27T04:30:09;101546.73;;;21.26;42.83
50632;BME280;49583;45.590;-122.498;2023-04-27T04:32:26;101553.46;;;21.18;42.88
50632;BME280;49583;45.590;-122.498;2023-04-27T04:34:43;101549.69;;;21.09;43.06
50632;BME280;49583;45.590;-122.498;2023-04-27T04:37:20;101548.89;;;20.99;43.06
50632;BME280;49583;45.590;-122.498;2023-04-27T04:39:37;101555.70;;;20.91;43.24
50632;BME280;49583;45.590;-122.498;2023-04-27T04:41:59;101559.74;;;20.82;43.27
50632;BME280;49583;45.590;-122.498;2023-04-27T04:44:33;101557.05;;;20.71;43.41
50632;BME280;49583;45.590;-122.498;2023-04-27T04:46:46;101563.61;;;20.65;43.29
50632;BME280;49583;45.590;-122.498;2023-04-27T04:48:59;101562.86;;;20.56;43.48
50632;BME280;49583;45.590;-122.498;2023-04-27T04:51:15;101564.33;;;20.51;43.59
50632;BME280;49583;45.590;-122.498;2023-04-27T04:53:38;101565.95;;;20.43;43.66
50632;BME280;49583;45.590;-122.498;2023-04-27T04:55:51;101564.30;;;20.36;43.84
50632;BME280;49583;45.590;-122.498;2023-04-27T04:58:28;101565.51;;;20.29;43.86
50632;BME280;49583;45.590;-122.498;2023-04-27T05:00:50;101564.02;;;20.23;44.07
50632;BME280;49583;45.590;-122.498;2023-04-27T05:03:04;101560.89;;;20.15;44.12
50632;BME280;49583;45.590;-122.498;2023-04-27T05:05:21;101567.40;;;20.13;44.21
50632;BME280;49583;45.590;-122.498;2023-04-27T05:07:45;101567.49;;;20.09;44.26
50632;BME280;49583;45.590;-122.498;2023-04-27T05:09:58;101567.36;;;20.03;44.45
50632;BME280;49583;45.590;-122.498;2023-04-27T05:12:11;101572.70;;;19.98;44.48
50632;BME280;49583;45.590;-122.498;2023-04-27T05:14:38;101570.08;;;19.91;44.45
50632;BME280;49583;45.590;-122.498;2023-04-27T05:17:01;101574.48;;;19.85;44.49
50632;BME280;49583;45.590;-122.498;2023-04-27T05:19:34;101574.17;;;19.79;44.57
50632;BME280;49583;45.590;-122.498;2023-04-27T05:21:49;101576.02;;;19.73;44.64
50632;BME280;49583;45.590;-122.498;2023-04-27T05:24:14;101582.21;;;19.68;44.72
50632;BME280;49583;45.590;-122.498;2023-04-27T05:26:38;101577.77;;;19.61;44.75
50632;BME280;49583;45.590;-122.498;2023-04-27T05:28:51;101580.56;;;19.55;44.91
50632;BME280;49583;45.590;-122.498;2023-04-27T05:31:08;101579.86;;;19.50;45.01
50632;BME280;49583;45.590;-122.498;2023-04-27T05:33:31;101585.54;;;19.46;44.96
50632;BME280;49583;45.590;-122.498;2023-04-27T05:36:06;101589.67;;;19.40;45.15
50632;BME280;49583;45.590;-122.498;2023-04-27T05:38:23;101588.73;;;19.34;45.28
50632;BME280;49583;45.590;-122.498;2023-04-27T05:40:36;101590.54;;;19.30;45.25
50632;BME280;49583;45.590;-122.498;2023-04-27T05:42:49;101588.56;;;19.24;45.37
50632;BME280;49583;45.590;-122.498;2023-04-27T05:45:13;101589.83;;;19.16;45.54
50632;BME280;49583;45.590;-122.498;2023-04-27T05:47:29;101593.73;;;19.10;45.57
50632;BME280;49583;45.590;-122.498;2023-04-27T05:49:44;101592.60;;;19.05;45.68
50632;BME280;49583;45.590;-122.498;2023-04-27T05:52:13;101596.23;;;18.99;45.78
50632;BME280;49583;45.590;-122.498;2023-04-27T05:54:25;101598.86;;;18.95;45.82
50632;BME280;49583;45.590;-122.498;2023-04-27T05:56:38;101602.89;;;18.92;45.91
50632;BME280;49583;45.590;-122.498;2023-04-27T05:59:11;101605.73;;;18.87;46.00
50632;BME280;49583;45.590;-122.498;2023-04-27T06:01:34;101602.64;;;18.81;46.06
50632;BME280;49583;45.590;-122.498;2023-04-27T06:03:58;101605.06;;;18.75;46.11
50632;BME280;49583;45.590;-122.498;2023-04-27T06:06:15;101603.48;;;18.70;46.28
50632;BME280;49583;45.590;-122.498;2023-04-27T06:08:28;101603.06;;;18.64;46.16
50632;BME280;49583;45.590;-122.498;2023-04-27T06:10:41;101603.68;;;18.61;46.39
50632;BME280;49583;45.590;-122.498;2023-04-27T06:12:54;101604.45;;;18.57;46.43
50632;BME280;49583;45.590;-122.498;2023-04-27T06:15:09;101604.17;;;18.52;46.63
50632;BME280;49583;45.590;-122.498;2023-04-27T06:17:22;101605.66;;;18.47;46.66
50632;BME280;49583;45.590;-122.498;2023-04-27T06:19:55;101602.17;;;18.41;46.82
50632;BME280;49583;45.590;-122.498;2023-04-27T06:22:28;101601.83;;;18.35;46.83
50632;BME280;49583;45.590;-122.498;2023-04-27T06:24:54;101605.90;;;18.29;46.96
50632;BME280;49583;45.590;-122.498;2023-04-27T06:27:13;101614.61;;;18.25;46.98
50632;BME280;49583;45.590;-122.498;2023-04-27T06:29:36;101616.87;;;18.21;47.12
50632;BME280;49583;45.590;-122.498;2023-04-27T06:31:50;101616.80;;;18.19;47.28
50632;BME280;49583;45.590;-122.498;2023-04-27T06:34:03;101617.40;;;18.15;47.37
50632;BME280;49583;45.590;-122.498;2023-04-27T06:36:36;101619.38;;;18.12;47.42
50632;BME280;49583;45.590;-122.498;2023-04-27T06:39:09;101620.20;;;18.06;47.42
50632;BME280;49583;45.590;-122.498;2023-04-27T06:41:22;101616.39;;;18.02;47.51
50632;BME280;49583;45.590;-122.498;2023-04-27T06:43:56;101619.44;;;17.97;47.47
50632;BME280;49583;45.590;-122.498;2023-04-27T06:46:19;101618.95;;;17.93;47.51
50632;BME280;49583;45.590;-122.498;2023-04-27T06:48:42;101622.33;;;17.88;47.64
50632;BME280;49583;45.590;-122.498;2023-04-27T06:51:09;101624.34;;;17.85;47.80
50632;BME280;49583;45.590;-122.498;2023-04-27T06:53:41;101624.02;;;17.80;47.92
50632;BME280;49583;45.590;-122.498;2023-04-27T06:55:58;101632.12;;;17.76;47.99
50632;BME280;49583;45.590;-122.498;2023-04-27T06:58:31;101636.67;;;17.68;48.01
50632;BME280;49583;45.590;-122.498;2023-04-27T07:01:04;101640.91;;;17.65;48.00
50632;BME280;49583;45.590;-122.498;2023-04-27T07:03:38;101637.59;;;17.60;48.13
50632;BME280;49583;45.590;-122.498;2023-04-27T07:05:55;101642.55;;;17.55;48.24
50632;BME280;49583;45.590;-122.498;2023-04-27T07:08:11;101639.42;;;17.52;48.25
50632;BME280;49583;45.590;-122.498;2023-04-27T07:10:27;101641.80;;;17.49;48.41
50632;BME280;49583;45.590;-122.498;2023-04-27T07:13:00;101644.44;;;17.46;48.37
50632;BME280;49583;45.590;-122.498;2023-04-27T07:15:37;101649.00;;;17.43;48.52
50632;BME280;49583;45.590;-122.498;2023-04-27T07:18:05;101649.92;;;17.39;48.50
50632;BME280;49583;45.590;-122.498;2023-04-27T07:20:20;101649.09;;;17.35;48.59
50632;BME280;49583;45.590;-122.498;2023-04-27T07:22:42;101648.11;;;17.30;48.71
50632;BME280;49583;45.590;-122.498;2023-04-27T07:24:55;101646.73;;;17.26;48.75
50632;BME280;49583;45.590;-122.498;2023-04-27T07:27:17;101645.71;;;17.20;48.86
50632;BME280;49583;45.590;-122.498;2023-04-27T07:29:39;101646.15;;;17.16;48.95
50632;BME280;49583;45.590;-122.498;2023-04-27T07:31:55;101645.23;;;17.12;49.01
50632;BME280;49583;45.590;-122.498;2023-04-27T07:34:11;101648.35;;;17.07;49.18
50632;BME280;49583;45.590;-122.498;2023-04-27T07:36:24;101648.03;;;16.99;49.32
50632;BME280;49583;45.590;-122.498;2023-04-27T07:38:40;101661.14;;;16.98;49.37
50632;BME280;49583;45.590;-122.498;2023-04-27T07:40:53;101659.96;;;16.92;49.48
50632;BME280;49583;45.590;-122.498;2023-04-27T07:43:07;101662.14;;;16.88;49.59
50632;BME280;49583;45.590;-122.498;2023-04-27T07:45:41;101658.64;;;16.79;49.70
50632;BME280;49583;45.590;-122.498;2023-04-27T07:47:59;101663.05;;;16.71;49.85
50632;BME280;49583;45.590;-122.498;2023-04-27T07:50:33;101664.09;;;16.66;50.12
50632;BME280;49583;45.590;-122.498;2023-04-27T07:52:50;101661.89;;;16.61;50.37
50632;BME280;49583;45.590;-122.498;2023-04-27T07:55:08;101661.75;;;16.59;50.40
50632;BME280;49583;45.590;-122.498;2023-04-27T07:57:31;101662.17;;;16.53;50.55
50632;BME280;49583;45.590;-122.498;2023-04-27T07:59:44;101660.46;;;16.50;50.69
50632;BME280;49583;45.590;-122.498;2023-04-27T08:02:01;101659.64;;;16.46;50.71
50632;BME280;49583;45.590;-122.498;2023-04-27T08:04:32;101663.52;;;16.43;50.75
50632;BME280;49583;45.590;-122.498;2023-04-27T08:06:49;101665.33;;;16.40;50.85
50632;BME280;49583;45.590;-122.498;2023-04-27T08:09:12;101670.41;;;16.38;50.87
50632;BME280;49583;45.590;-122.498;2023-04-27T08:11:45;101671.86;;;16.35;50.88
50632;BME280;49583;45.590;-122.498;2023-04-27T08:14:10;101673.71;;;16.30;50.96
50632;BME280;49583;45.590;-122.498;2023-04-27T08:16:44;101673.41;;;16.25;51.05
50632;BME280;49583;45.590;-122.498;2023-04-27T08:19:17;101674.77;;;16.21;51.10
50632;BME280;49583;45.590;-122.498;2023-04-27T08:21:30;101677.74;;;16.20;51.21
50632;BME280;49583;45.590;-122.498;2023-04-27T08:23:54;101676.45;;;16.17;51.18
50632;BME280;49583;45.590;-122.498;2023-04-27T08:26:07;101668.96;;;16.13;51.18
50632;BME280;49583;45.590;-122.498;2023-04-27T08:28:20;101666.71;;;16.09;51.34
50632;BME280;49583;45.590;-122.498;2023-04-27T08:30:52;101666.33;;;16.05;51.27
50632;BME280;49583;45.590;-122.498;2023-04-27T08:33:25;101667.13;;;16.00;51.40
50632;BME280;49583;45.590;-122.498;2023-04-27T08:35:41;101666.80;;;15.95;51.43
50632;BME280;49583;45.590;-122.498;2023-04-27T08:37:54;101666.21;;;15.92;51.48
50632;BME280;49583;45.590;-122.498;2023-04-27T08:40:17;101668.41;;;15.87;51.64
50632;BME280;49583;45.590;-122.498;2023-04-27T08:42:33;101666.73;;;15.81;51.66
50632;BME280;49583;45.590;-122.498;2023-04-27T08:44:50;101660.98;;;15.76;51.73
50632;BME280;49583;45.590;-122.498;2023-04-27T08:47:05;101661.63;;;15.71;51.84
50632;BME280;49583;45.590;-122.498;2023-04-27T08:49:18;101664.77;;;15.66;51.91
50632;BME280;49583;45.590;-122.498;2023-04-27T08:51:51;101672.35;;;15.61;51.94
50632;BME280;49583;45.590;-122.498;2023-04-27T08:54:15;101674.32;;;15.57;52.13
50632;BME280;49583;45.590;-122.498;2023-04-27T08:56:29;101673.73;;;15.51;52.08
50632;BME280;49583;45.590;-122.498;2023-04-27T08:59:02;101675.62;;;15.46;52.18
50632;BME280;49583;45.590;-122.498;2023-04-27T09:01:29;101674.75;;;15.43;52.44
50632;BME280;49583;45.590;-122.498;2023-04-27T09:03:57;101671.16;;;15.39;52.59
50632;BME280;49583;45.590;-122.498;2023-04-27T09:06:30;101672.59;;;15.36;52.56
50632;BME280;49583;45.590;-122.498;2023-04-27T09:08:48;101673.65;;;15.34;52.48
50632;BME280;49583;45.590;-122.498;2023-04-27T09:11:01;101675.04;;;15.31;52.68
50632;BME280;49583;45.590;-122.498;2023-04-27T09:13:17;101674.12;;;15.29;52.79
50632;BME280;49583;45.590;-122.498;2023-04-27T09:15:43;101677.14;;;15.26;52.89
50632;BME280;49583;45.590;-122.498;2023-04-27T09:18:02;101677.63;;;15.22;52.89
50632;BME280;49583;45.590;-122.498;2023-04-27T09:20:44;101674.23;;;15.18;53.09
50632;BME280;49583;45.590;-122.498;2023-04-27T09:23:30;101672.94;;;15.12;53.09
50632;BME280;49583;45.590;-122.498;2023-04-27T09:25:43;101673.55;;;15.07;53.33
50632;BME280;49583;45.590;-122.498;2023-04-27T09:28:00;101673.00;;;15.02;53.40
50632;BME280;49583;45.590;-122.498;2023-04-27T09:30:24;101674.81;;;14.98;53.44
50632;BME280;49583;45.590;-122.498;2023-04-27T09:32:47;101673.63;;;14.93;53.68
50632;BME280;49583;45.590;-122.498;2023-04-27T09:35:03;101676.38;;;14.89;53.84
50632;BME280;49583;45.590;-122.498;2023-04-27T09:37:38;101682.20;;;14.85;53.86
50632;BME280;49583;45.590;-122.498;2023-04-27T09:40:04;101682.73;;;14.81;54.05
50632;BME280;49583;45.590;-122.498;2023-04-27T09:42:20;101685.75;;;14.77;54.21
50632;BME280;49583;45.590;-122.498;2023-04-27T09:44:42;101680.17;;;14.74;54.29
50632;BME280;49583;45.590;-122.498;2023-04-27T09:46:59;101681.86;;;14.73;54.56
50632;BME280;49583;45.590;-122.498;2023-04-27T09:49:13;101683.56;;;14.71;54.35
50632;BME280;49583;45.590;-122.498;2023-04-27T09:51:48;101686.27;;;14.68;54.61
50632;BME280;49583;45.590;-122.498;2023-04-27T09:54:06;101686.09;;;14.63;54.47
50632;BME280;49583;45.590;-122.498;2023-04-27T09:56:29;101685.72;;;14.60;54.50
50632;BME280;49583;45.590;-122.498;2023-04-27T09:58:54;101682.09;;;14.57;54.73
50632;BME280;49583;45.590;-122.498;2023-04-27T10:04:39;101685.84;;;14.55;54.98
50632;BME280;49583;45.590;-122.498;2023-04-27T10:07:06;101681.61;;;14.53;55.06
50632;BME280;49583;45.590;-122.498;2023-04-27T10:09:21;101683.84;;;14.50;55.20
50632;BME280;49583;45.590;-122.498;2023-04-27T10:11:39;101686.08;;;14.47;55.25
50632;BME280;49583;45.590;-122.498;2023-04-27T10:13:56;101680.08;;;14.44;55.13
50632;BME280;49583;45.590;-122.498;2023-04-27T10:16:18;101679.85;;;14.41;55.35
50632;BME280;49583;45.590;-122.498;2023-04-27T10:18:35;101675.91;;;14.37;55.32
50632;BME280;49583;45.590;-122.498;2023-04-27T10:20:48;101677.41;;;14.35;55.49
50632;BME280;49583;45.590;-122.498;2023-04-27T10:23:20;101675.60;;;14.31;55.71
50632;BME280;49583;45.590;-122.498;2023-04-27T10:25:36;101680.27;;;14.28;55.67
50632;BME280;49583;45.590;-122.498;2023-04-27T10:27:54;101680.82;;;14.25;55.77
50632;BME280;49583;45.590;-122.498;2023-04-27T10:30:13;101679.77;;;14.20;55.83
50632;BME280;49583;45.590;-122.498;2023-04-27T10:32:30;101681.09;;;14.16;56.00
50632;BME280;49583;45.590;-122.498;2023-04-27T10:34:45;101682.77;;;14.14;56.05
50632;BME280;49583;45.590;-122.498;2023-04-27T10:37:06;101682.23;;;14.11;56.21
50632;BME280;49583;45.590;-122.498;2023-04-27T10:39:20;101679.49;;;14.08;56.29
50632;BME280;49583;45.590;-122.498;2023-04-27T10:41:56;101681.12;;;14.04;56.42
50632;BME280;49583;45.590;-122.498;2023-04-27T10:44:18;101683.42;;;14.02;56.40
50632;BME280;49583;45.590;-122.498;2023-04-27T10:46:36;101682.36;;;13.99;56.48
50632;BME280;49583;45.590;-122.498;2023-04-27T10:49:12;101681.52;;;13.97;56.58
50632;BME280;49583;45.590;-122.498;2023-04-27T10:51:47;101682.39;;;13.94;56.57
50632;BME280;49583;45.590;-122.498;2023-04-27T10:54:02;101679.11;;;13.89;56.53
50632;BME280;49583;45.590;-122.498;2023-04-27T10:56:36;101679.73;;;13.84;56.62
50632;BME280;49583;45.590;-122.498;2023-04-27T10:58:49;101681.66;;;13.80;56.85
50632;BME280;49583;45.590;-122.498;2023-04-27T11:01:02;101682.98;;;13.76;56.96
50632;BME280;49583;45.590;-122.498;2023-04-27T11:03:20;101683.58;;;13.72;56.90
50632;BME280;49583;45.590;-122.498;2023-04-27T11:05:34;101684.77;;;13.68;56.96
50632;BME280;49583;45.590;-122.498;2023-04-27T11:07:47;101681.98;;;13.61;57.16
50632;BME280;49583;45.590;-122.498;2023-04-27T11:10:00;101691.67;;;13.62;57.33
50632;BME280;49583;45.590;-122.498;2023-04-27T11:12:14;101692.55;;;13.59;57.27
50632;BME280;49583;45.590;-122.498;2023-04-27T11:14:30;101697.10;;;13.56;57.41
50632;BME280;49583;45.590;-122.498;2023-04-27T11:16:50;101696.08;;;13.53;57.54
50632;BME280;49583;45.590;-122.498;2023-04-27T11:19:09;101697.48;;;13.46;57.35
50632;BME280;49583;45.590;-122.498;2023-04-27T11:21:22;101697.92;;;13.42;57.47
50632;BME280;49583;45.590;-122.498;2023-04-27T11:23:35;101698.81;;;13.37;57.70
50632;BME280;49583;45.590;-122.498;2023-04-27T11:25:49;101697.86;;;13.30;57.62
50632;BME280;49583;45.590;-122.498;2023-04-27T11:28:02;101702.70;;;13.26;57.77
50632;BME280;49583;45.590;-122.498;2023-04-27T11:30:25;101704.05;;;13.24;58.04
50632;BME280;49583;45.590;-122.498;2023-04-27T11:32:38;101701.05;;;13.21;58.05
50632;BME280;49583;45.590;-122.498;2023-04-27T11:34:54;101701.62;;;13.18;58.16
50632;BME280;49583;45.590;-122.498;2023-04-27T11:37:08;101697.64;;;13.16;58.38
50632;BME280;49583;45.590;-122.498;2023-04-27T11:39:33;101698.21;;;13.14;58.29
50632;BME280;49583;45.590;-122.498;2023-04-27T11:41:58;101696.99;;;13.11;58.39
50632;BME280;49583;45.590;-122.498;2023-04-27T11:44:29;101696.23;;;13.09;58.48
50632;BME280;49583;45.590;-122.498;2023-04-27T11:46:45;101695.59;;;13.05;58.52
50632;BME280;49583;45.590;-122.498;2023-04-27T11:49:08;101703.38;;;13.03;58.58
50632;BME280;49583;45.590;-122.498;2023-04-27T11:51:23;101699.73;;;12.99;58.47
50632;BME280;49583;45.590;-122.498;2023-04-27T11:53:37;101703.83;;;12.94;58.55
50632;BME280;49583;45.590;-122.498;2023-04-27T11:55:53;101703.75;;;12.88;58.66